sensor_id;sensor_type;location;lat;lon;timestamp;P1;durP1;ratioP1;P2;durP2;ratioP2
41436;SDS011;27178;49.460;10.850;2024-01-15T00:01:15;31.63;;;20.87;;
41436;SDS011;27178;49.460;10.850;2024-01-15T00:03:43;30.87;;;19.30;;
41436;SDS011;27178;49.460;10.850;2024-01-15T00:06:13;30.17;;;20.20;;
41436;SDS011;27178;49.460;10.850;2024-01-15T00:08:41;30.60;;;20.53;;
41436;SDS011;27178;49.460;10.850;2024-01-15T00:11:11;31.47;;;20.67;;
41436;SDS011;27178;49.460;10.850;2024-01-15T00:13:39;34.53;;;20.83;;
41436;SDS011;27178;49.460;10.850;2024-01-15T00:16:08;30.93;;;20.83;;
41436;SDS011;27178;49.460;10.850;2024-01-15T00:18:37;34.13;;;20.90;;
41436;SDS011;27178;49.460;10.850;2024-01-15T00:21:05;34.57;;;20.87;;
41436;SDS011;27178;49.460;10.850;2024-01-15T00:23:33;27.50;;;19.57;;
41436;SDS011;27178;49.460;10.850;2024-01-15T00:26:02;28.33;;;19.80;;
41436;SDS011;27178;49.460;10.850;2024-01-15T00:28:35;31.40;;;19.70;;
41436;SDS011;27178;49.460;10.850;2024-01-15T00:31:04;31.40;;;20.50;;
41436;SDS011;27178;49.460;10.850;2024-01-15T00:33:33;33.67;;;22.70;;
41436;SDS011;27178;49.460;10.850;2024-01-15T00:36:02;30.03;;;20.53;;
41436;SDS011;27178;49.460;10.850;2024-01-15T00:38:31;30.60;;;21.17;;
41436;SDS011;27178;49.460;10.850;2024-01-15T00:40:59;27.57;;;19.17;;
41436;SDS011;27178;49.460;10.850;2024-01-15T00:43:28;31.03;;;20.43;;
41436;SDS011;27178;49.460;10.850;2024-01-15T00:45:58;28.67;;;19.67;;
41436;SDS011;27178;49.460;10.850;2024-01-15T00:48:29;29.60;;;20.27;;
41436;SDS011;27178;49.460;10.850;2024-01-15T00:50:57;30.47;;;20.87;;
41436;SDS011;27178;49.460;10.850;2024-01-15T00:53:25;33.30;;;22.13;;
41436;SDS011;27178;49.460;10.850;2024-01-15T00:55:53;31.83;;;21.63;;
41436;SDS011;27178;49.460;10.850;2024-01-15T00:58:22;30.27;;;20.80;;
41436;SDS011;27178;49.460;10.850;2024-01-15T01:00:50;34.33;;;22.67;;
41436;SDS011;27178;49.460;10.850;2024-01-15T01:03:20;31.57;;;20.77;;
41436;SDS011;27178;49.460;10.850;2024-01-15T01:05:49;30.47;;;20.23;;
41436;SDS011;27178;49.460;10.850;2024-01-15T01:08:17;31.97;;;20.83;;
41436;SDS011;27178;49.460;10.850;2024-01-15T01:10:45;30.73;;;20.53;;
41436;SDS011;27178;49.460;10.850;2024-01-15T01:13:14;29.23;;;20.10;;
41436;SDS011;27178;49.460;10.850;2024-01-15T01:15:42;29.30;;;20.17;;
41436;SDS011;27178;49.460;10.850;2024-01-15T01:18:10;33.30;;;21.20;;
41436;SDS011;27178;49.460;10.850;2024-01-15T01:20:40;32.30;;;20.97;;
41436;SDS011;27178;49.460;10.850;2024-01-15T01:23:08;31.50;;;21.57;;
41436;SDS011;27178;49.460;10.850;2024-01-15T01:25:37;29.90;;;20.83;;
41436;SDS011;27178;49.460;10.850;2024-01-15T01:28:05;34.17;;;21.50;;
41436;SDS011;27178;49.460;10.850;2024-01-15T01:30:34;30.63;;;20.23;;
41436;SDS011;27178;49.460;10.850;2024-01-15T01:33:02;30.17;;;20.83;;
41436;SDS011;27178;49.460;10.850;2024-01-15T01:35:31;31.30;;;21.30;;
41436;SDS011;27178;49.460;10.850;2024-01-15T01:38:01;31.40;;;20.03;;
41436;SDS011;27178;49.460;10.850;2024-01-15T01:40:29;31.97;;;22.10;;
41436;SDS011;27178;49.460;10.850;2024-01-15T01:42:58;31.77;;;20.70;;
41436;SDS011;27178;49.460;10.850;2024-01-15T01:45:26;29.33;;;20.80;;
41436;SDS011;27178;49.460;10.850;2024-01-15T01:47:54;30.90;;;20.63;;
41436;SDS011;27178;49.460;10.850;2024-01-15T01:50:23;29.50;;;20.37;;
41436;SDS011;27178;49.460;10.850;2024-01-15T01:52:51;30.87;;;20.93;;
41436;SDS011;27178;49.460;10.850;2024-01-15T01:55:21;31.43;;;20.23;;
41436;SDS011;27178;49.460;10.850;2024-01-15T01:57:52;32.43;;;21.43;;
41436;SDS011;27178;49.460;10.850;2024-01-15T02:00:22;31.60;;;19.50;;
41436;SDS011;27178;49.460;10.850;2024-01-15T02:02:50;29.53;;;19.97;;
41436;SDS011;27178;49.460;10.850;2024-01-15T02:05:19;28.73;;;19.33;;
41436;SDS011;27178;49.460;10.850;2024-01-15T02:07:48;27.07;;;19.13;;
41436;SDS011;27178;49.460;10.850;2024-01-15T02:10:17;27.90;;;18.60;;
41436;SDS011;27178;49.460;10.850;2024-01-15T02:12:46;26.87;;;18.63;;
41436;SDS011;27178;49.460;10.850;2024-01-15T02:15:15;29.37;;;19.37;;
41436;SDS011;27178;49.460;10.850;2024-01-15T02:17:57;28.40;;;19.13;;
41436;SDS011;27178;49.460;10.850;2024-01-15T02:20:27;30.03;;;19.10;;
41436;SDS011;27178;49.460;10.850;2024-01-15T02:23:03;25.73;;;17.23;;
41436;SDS011;27178;49.460;10.850;2024-01-15T02:25:35;25.87;;;18.13;;
41436;SDS011;27178;49.460;10.850;2024-01-15T02:28:05;27.97;;;18.23;;
41436;SDS011;27178;49.460;10.850;2024-01-15T02:30:35;24.17;;;17.37;;
41436;SDS011;27178;49.460;10.850;2024-01-15T02:33:06;22.77;;;16.57;;
41436;SDS011;27178;49.460;10.850;2024-01-15T02:35:35;25.43;;;17.30;;
41436;SDS011;27178;49.460;10.850;2024-01-15T02:38:05;22.33;;;16.07;;
41436;SDS011;27178;49.460;10.850;2024-01-15T02:40:34;26.30;;;17.73;;
41436;SDS011;27178;49.460;10.850;2024-01-15T02:43:03;21.90;;;16.47;;
41436;SDS011;27178;49.460;10.850;2024-01-15T02:45:31;26.33;;;17.63;;
41436;SDS011;27178;49.460;10.850;2024-01-15T02:48:00;24.57;;;17.73;;
41436;SDS011;27178;49.460;10.850;2024-01-15T02:50:28;23.57;;;15.80;;
41436;SDS011;27178;49.460;10.850;2024-01-15T02:52:57;24.60;;;16.47;;
41436;SDS011;27178;49.460;10.850;2024-01-15T02:55:26;22.70;;;16.57;;
41436;SDS011;27178;49.460;10.850;2024-01-15T02:57:56;21.80;;;15.13;;
41436;SDS011;27178;49.460;10.850;2024-01-15T03:00:24;23.10;;;15.30;;
41436;SDS011;27178;49.460;10.850;2024-01-15T03:02:53;20.33;;;15.27;;
41436;SDS011;27178;49.460;10.850;2024-01-15T03:05:22;21.37;;;15.07;;
41436;SDS011;27178;49.460;10.850;2024-01-15T03:07:50;26.87;;;16.33;;
41436;SDS011;27178;49.460;10.850;2024-01-15T03:14:07;21.67;;;13.83;;
41436;SDS011;27178;49.460;10.850;2024-01-15T03:16:35;18.83;;;13.40;;
41436;SDS011;27178;49.460;10.850;2024-01-15T03:19:04;19.43;;;13.67;;
41436;SDS011;27178;49.460;10.850;2024-01-15T03:21:32;19.80;;;14.10;;
41436;SDS011;27178;49.460;10.850;2024-01-15T03:24:00;18.87;;;13.63;;
41436;SDS011;27178;49.460;10.850;2024-01-15T03:26:29;18.67;;;12.67;;
41436;SDS011;27178;49.460;10.850;2024-01-15T03:28:57;18.87;;;13.13;;
41436;SDS011;27178;49.460;10.850;2024-01-15T03:31:26;18.30;;;13.60;;
41436;SDS011;27178;49.460;10.850;2024-01-15T03:33:55;19.77;;;14.67;;
41436;SDS011;27178;49.460;10.850;2024-01-15T03:36:23;18.17;;;13.87;;
41436;SDS011;27178;49.460;10.850;2024-01-15T03:38:52;20.53;;;14.20;;
41436;SDS011;27178;49.460;10.850;2024-01-15T03:41:20;18.80;;;13.27;;
41436;SDS011;27178;49.460;10.850;2024-01-15T03:43:48;20.43;;;15.33;;
41436;SDS011;27178;49.460;10.850;2024-01-15T03:46:16;22.83;;;14.23;;
41436;SDS011;27178;49.460;10.850;2024-01-15T03:48:46;19.67;;;13.87;;
41436;SDS011;27178;49.460;10.850;2024-01-15T03:51:17;19.90;;;13.63;;
41436;SDS011;27178;49.460;10.850;2024-01-15T03:53:46;18.60;;;12.97;;
41436;SDS011;27178;49.460;10.850;2024-01-15T03:56:14;17.77;;;12.70;;
41436;SDS011;27178;49.460;10.850;2024-01-15T03:58:42;15.83;;;12.47;;
41436;SDS011;27178;49.460;10.850;2024-01-15T04:01:10;18.97;;;14.37;;
41436;SDS011;27178;49.460;10.850;2024-01-15T04:03:39;15.90;;;12.47;;
41436;SDS011;27178;49.460;10.850;2024-01-15T04:06:09;16.93;;;12.37;;
41436;SDS011;27178;49.460;10.850;2024-01-15T04:08:37;16.90;;;12.90;;
41436;SDS011;27178;49.460;10.850;2024-01-15T04:11:05;16.90;;;13.13;;
41436;SDS011;27178;49.460;10.850;2024-01-15T04:13:33;18.00;;;13.13;;
41436;SDS011;27178;49.460;10.850;2024-01-15T04:16:05;16.40;;;12.33;;
41436;SDS011;27178;49.460;10.850;2024-01-15T04:18:33;18.77;;;12.70;;
41436;SDS011;27178;49.460;10.850;2024-01-15T04:21:03;17.13;;;12.20;;
41436;SDS011;27178;49.460;10.850;2024-01-15T04:23:33;20.67;;;14.37;;
41436;SDS011;27178;49.460;10.850;2024-01-15T04:26:01;19.23;;;13.63;;
41436;SDS011;27178;49.460;10.850;2024-01-15T04:28:30;17.70;;;12.80;;
41436;SDS011;27178;49.460;10.850;2024-01-15T04:30:58;17.67;;;13.07;;
41436;SDS011;27178;49.460;10.850;2024-01-15T04:33:26;18.83;;;13.03;;
41436;SDS011;27178;49.460;10.850;2024-01-15T04:35:55;15.90;;;13.37;;
41436;SDS011;27178;49.460;10.850;2024-01-15T04:38:23;18.03;;;12.67;;
41436;SDS011;27178;49.460;10.850;2024-01-15T04:40:53;20.77;;;13.73;;
41436;SDS011;27178;49.460;10.850;2024-01-15T04:43:23;19.20;;;13.33;;
41436;SDS011;27178;49.460;10.850;2024-01-15T04:45:52;17.73;;;13.70;;
41436;SDS011;27178;49.460;10.850;2024-01-15T04:48:20;20.63;;;13.97;;
41436;SDS011;27178;49.460;10.850;2024-01-15T04:50:49;20.63;;;14.37;;
41436;SDS011;27178;49.460;10.850;2024-01-15T04:53:17;20.60;;;13.73;;
41436;SDS011;27178;49.460;10.850;2024-01-15T04:55:45;21.77;;;14.57;;
41436;SDS011;27178;49.460;10.850;2024-01-15T04:58:15;22.47;;;15.23;;
41436;SDS011;27178;49.460;10.850;2024-01-15T05:00:43;21.07;;;14.17;;
41436;SDS011;27178;49.460;10.850;2024-01-15T05:03:11;20.83;;;13.47;;
41436;SDS011;27178;49.460;10.850;2024-01-15T05:05:39;23.07;;;14.87;;
41436;SDS011;27178;49.460;10.850;2024-01-15T05:08:08;20.47;;;14.40;;
41436;SDS011;27178;49.460;10.850;2024-01-15T05:10:36;17.07;;;12.43;;
41436;SDS011;27178;49.460;10.850;2024-01-15T05:13:05;18.90;;;12.60;;
41436;SDS011;27178;49.460;10.850;2024-01-15T05:15:35;18.37;;;13.17;;
41436;SDS011;27178;49.460;10.850;2024-01-15T05:18:03;20.43;;;13.30;;
41436;SDS011;27178;49.460;10.850;2024-01-15T05:20:32;18.73;;;13.83;;
41436;SDS011;27178;49.460;10.850;2024-01-15T05:23:01;18.53;;;12.80;;
41436;SDS011;27178;49.460;10.850;2024-01-15T05:25:29;16.67;;;13.03;;
41436;SDS011;27178;49.460;10.850;2024-01-15T05:27:58;16.60;;;11.70;;
41436;SDS011;27178;49.460;10.850;2024-01-15T05:30:26;20.17;;;12.47;;
41436;SDS011;27178;49.460;10.850;2024-01-15T05:32:56;18.17;;;12.47;;
41436;SDS011;27178;49.460;10.850;2024-01-15T05:35:27;16.73;;;12.17;;
41436;SDS011;27178;49.460;10.850;2024-01-15T05:37:55;16.97;;;11.77;;
41436;SDS011;27178;49.460;10.850;2024-01-15T05:40:23;15.40;;;11.17;;
41436;SDS011;27178;49.460;10.850;2024-01-15T05:42:51;15.70;;;11.53;;
41436;SDS011;27178;49.460;10.850;2024-01-15T05:45:19;15.73;;;11.57;;
41436;SDS011;27178;49.460;10.850;2024-01-15T05:47:48;17.37;;;11.83;;
41436;SDS011;27178;49.460;10.850;2024-01-15T05:50:17;16.63;;;11.80;;
41436;SDS011;27178;49.460;10.850;2024-01-15T05:52:46;17.37;;;12.00;;
41436;SDS011;27178;49.460;10.850;2024-01-15T05:55:14;16.33;;;11.10;;
41436;SDS011;27178;49.460;10.850;2024-01-15T05:57:43;16.60;;;12.00;;
41436;SDS011;27178;49.460;10.850;2024-01-15T06:00:12;15.90;;;11.30;;
41436;SDS011;27178;49.460;10.850;2024-01-15T06:02:40;14.90;;;10.83;;
41436;SDS011;27178;49.460;10.850;2024-01-15T06:05:08;13.83;;;10.30;;
41436;SDS011;27178;49.460;10.850;2024-01-15T06:07:38;13.70;;;11.20;;
41436;SDS011;27178;49.460;10.850;2024-01-15T06:10:07;13.80;;;10.27;;
41436;SDS011;27178;49.460;10.850;2024-01-15T06:12:35;14.30;;;10.37;;
41436;SDS011;27178;49.460;10.850;2024-01-15T06:15:04;15.07;;;11.27;;
41436;SDS011;27178;49.460;10.850;2024-01-15T06:17:34;13.47;;;10.77;;
41436;SDS011;27178;49.460;10.850;2024-01-15T06:20:02;14.90;;;10.53;;
41436;SDS011;27178;49.460;10.850;2024-01-15T06:22:31;14.13;;;10.93;;
41436;SDS011;27178;49.460;10.850;2024-01-15T06:25:01;17.20;;;11.43;;
41436;SDS011;27178;49.460;10.850;2024-01-15T06:27:30;15.43;;;11.07;;
41436;SDS011;27178;49.460;10.850;2024-01-15T06:29:58;15.27;;;10.23;;
41436;SDS011;27178;49.460;10.850;2024-01-15T06:32:26;15.33;;;11.20;;
41436;SDS011;27178;49.460;10.850;2024-01-15T06:34:55;13.23;;;10.07;;
41436;SDS011;27178;49.460;10.850;2024-01-15T06:37:23;13.63;;;10.07;;
41436;SDS011;27178;49.460;10.850;2024-01-15T06:39:51;13.10;;;10.40;;
41436;SDS011;27178;49.460;10.850;2024-01-15T06:42:21;14.23;;;10.43;;
41436;SDS011;27178;49.460;10.850;2024-01-15T06:44:50;13.53;;;10.90;;
41436;SDS011;27178;49.460;10.850;2024-01-15T06:47:18;12.70;;;9.73;;
41436;SDS011;27178;49.460;10.850;2024-01-15T06:49:47;13.63;;;9.77;;
41436;SDS011;27178;49.460;10.850;2024-01-15T06:52:17;13.67;;;9.73;;
41436;SDS011;27178;49.460;10.850;2024-01-15T06:54:45;12.53;;;10.43;;
41436;SDS011;27178;49.460;10.850;2024-01-15T06:57:14;14.07;;;10.63;;
41436;SDS011;27178;49.460;10.850;2024-01-15T06:59:44;14.97;;;10.90;;
41436;SDS011;27178;49.460;10.850;2024-01-15T07:02:12;14.73;;;10.60;;
41436;SDS011;27178;49.460;10.850;2024-01-15T07:04:40;13.80;;;11.10;;
41436;SDS011;27178;49.460;10.850;2024-01-15T07:07:09;14.20;;;10.43;;
41436;SDS011;27178;49.460;10.850;2024-01-15T07:09:37;12.97;;;9.87;;
41436;SDS011;27178;49.460;10.850;2024-01-15T07:12:06;12.73;;;9.67;;
41436;SDS011;27178;49.460;10.850;2024-01-15T07:14:34;13.83;;;9.90;;
41436;SDS011;27178;49.460;10.850;2024-01-15T07:17:04;13.70;;;10.17;;
41436;SDS011;27178;49.460;10.850;2024-01-15T07:19:33;11.80;;;9.50;;
41436;SDS011;27178;49.460;10.850;2024-01-15T07:22:01;14.00;;;10.07;;
41436;SDS011;27178;49.460;10.850;2024-01-15T07:24:29;11.60;;;10.00;;
41436;SDS011;27178;49.460;10.850;2024-01-15T07:26:57;14.07;;;10.93;;
41436;SDS011;27178;49.460;10.850;2024-01-15T07:29:26;14.77;;;10.30;;
41436;SDS011;27178;49.460;10.850;2024-01-15T07:31:55;14.17;;;10.97;;
41436;SDS011;27178;49.460;10.850;2024-01-15T07:34:24;14.83;;;10.47;;
41436;SDS011;27178;49.460;10.850;2024-01-15T07:36:53;12.60;;;9.33;;
41436;SDS011;27178;49.460;10.850;2024-01-15T07:39:21;16.07;;;11.77;;
41436;SDS011;27178;49.460;10.850;2024-01-15T07:41:51;12.23;;;10.13;;
41436;SDS011;27178;49.460;10.850;2024-01-15T07:44:19;13.57;;;10.70;;
41436;SDS011;27178;49.460;10.850;2024-01-15T07:46:48;13.50;;;10.00;;
41436;SDS011;27178;49.460;10.850;2024-01-15T07:49:16;16.00;;;11.73;;
41436;SDS011;27178;49.460;10.850;2024-01-15T07:51:46;13.83;;;10.63;;
41436;SDS011;27178;49.460;10.850;2024-01-15T07:54:14;13.33;;;10.00;;
41436;SDS011;27178;49.460;10.850;2024-01-15T07:56:55;14.23;;;10.60;;
41436;SDS011;27178;49.460;10.850;2024-01-15T07:59:25;14.13;;;10.33;;
41436;SDS011;27178;49.460;10.850;2024-01-15T08:01:53;13.47;;;10.03;;
41436;SDS011;27178;49.460;10.850;2024-01-15T08:04:21;14.67;;;10.63;;
41436;SDS011;27178;49.460;10.850;2024-01-15T08:06:51;16.23;;;10.10;;
41436;SDS011;27178;49.460;10.850;2024-01-15T08:09:20;15.63;;;10.87;;
41436;SDS011;27178;49.460;10.850;2024-01-15T08:11:48;12.13;;;10.13;;
41436;SDS011;27178;49.460;10.850;2024-01-15T08:14:17;12.27;;;10.37;;
41436;SDS011;27178;49.460;10.850;2024-01-15T08:16:45;13.10;;;10.13;;
41436;SDS011;27178;49.460;10.850;2024-01-15T08:19:13;13.03;;;9.90;;
41436;SDS011;27178;49.460;10.850;2024-01-15T08:21:42;10.83;;;9.27;;
41436;SDS011;27178;49.460;10.850;2024-01-15T08:24:12;13.27;;;10.27;;
41436;SDS011;27178;49.460;10.850;2024-01-15T08:26:40;14.37;;;10.70;;
41436;SDS011;27178;49.460;10.850;2024-01-15T08:29:09;13.23;;;9.90;;
41436;SDS011;27178;49.460;10.850;2024-01-15T08:31:37;14.70;;;9.93;;
41436;SDS011;27178;49.460;10.850;2024-01-15T08:34:06;14.40;;;10.57;;
41436;SDS011;27178;49.460;10.850;2024-01-15T08:36:34;13.83;;;10.33;;
41436;SDS011;27178;49.460;10.850;2024-01-15T08:39:03;13.07;;;9.87;;
41436;SDS011;27178;49.460;10.850;2024-01-15T08:41:33;12.87;;;9.93;;
41436;SDS011;27178;49.460;10.850;2024-01-15T08:44:02;12.67;;;9.47;;
41436;SDS011;27178;49.460;10.850;2024-01-15T08:46:30;14.47;;;11.20;;
41436;SDS011;27178;49.460;10.850;2024-01-15T08:48:59;12.20;;;9.37;;
41436;SDS011;27178;49.460;10.850;2024-01-15T08:51:28;12.37;;;8.63;;
41436;SDS011;27178;49.460;10.850;2024-01-15T08:53:56;11.83;;;9.70;;
41436;SDS011;27178;49.460;10.850;2024-01-15T08:56:25;12.03;;;9.87;;
41436;SDS011;27178;49.460;10.850;2024-01-15T08:58:55;12.67;;;9.07;;
41436;SDS011;27178;49.460;10.850;2024-01-15T09:01:24;11.67;;;9.20;;
41436;SDS011;27178;49.460;10.850;2024-01-15T09:03:52;12.07;;;9.63;;
41436;SDS011;27178;49.460;10.850;2024-01-15T09:06:21;11.60;;;9.23;;
41436;SDS011;27178;49.460;10.850;2024-01-15T09:08:49;10.37;;;9.13;;
41436;SDS011;27178;49.460;10.850;2024-01-15T09:11:18;12.77;;;8.87;;
41436;SDS011;27178;49.460;10.850;2024-01-15T09:13:46;11.90;;;9.30;;
41436;SDS011;27178;49.460;10.850;2024-01-15T09:16:15;13.37;;;9.37;;
41436;SDS011;27178;49.460;10.850;2024-01-15T09:18:44;11.47;;;9.37;;
41436;SDS011;27178;49.460;10.850;2024-01-15T09:21:13;11.23;;;8.77;;
41436;SDS011;27178;49.460;10.850;2024-01-15T09:23:41;11.23;;;9.17;;
41436;SDS011;27178;49.460;10.850;2024-01-15T09:26:10;12.30;;;10.07;;
41436;SDS011;27178;49.460;10.850;2024-01-15T09:28:38;12.07;;;9.23;;
41436;SDS011;27178;49.460;10.850;2024-01-15T09:31:07;12.27;;;9.77;;
41436;SDS011;27178;49.460;10.850;2024-01-15T09:33:37;12.77;;;9.57;;
41436;SDS011;27178;49.460;10.850;2024-01-15T09:36:06;12.83;;;9.37;;
41436;SDS011;27178;49.460;10.850;2024-01-15T09:38:35;10.93;;;9.13;;
41436;SDS011;27178;49.460;10.850;2024-01-15T09:41:03;12.47;;;9.40;;
41436;SDS011;27178;49.460;10.850;2024-01-15T09:43:32;11.57;;;9.90;;
41436;SDS011;27178;49.460;10.850;2024-01-15T09:46:01;11.27;;;9.07;;
41436;SDS011;27178;49.460;10.850;2024-01-15T09:48:30;10.63;;;9.13;;
41436;SDS011;27178;49.460;10.850;2024-01-15T09:51:02;11.87;;;9.97;;
41436;SDS011;27178;49.460;10.850;2024-01-15T09:53:31;10.23;;;8.77;;
41436;SDS011;27178;49.460;10.850;2024-01-15T09:56:00;13.13;;;9.50;;
41436;SDS011;27178;49.460;10.850;2024-01-15T09:58:32;12.73;;;10.00;;
41436;SDS011;27178;49.460;10.850;2024-01-15T10:01:02;12.77;;;9.27;;
41436;SDS011;27178;49.460;10.850;2024-01-15T10:03:34;12.53;;;9.17;;
41436;SDS011;27178;49.460;10.850;2024-01-15T10:06:04;9.97;;;8.77;;
41436;SDS011;27178;49.460;10.850;2024-01-15T10:08:34;9.47;;;8.33;;
41436;SDS011;27178;49.460;10.850;2024-01-15T10:11:04;9.50;;;8.10;;
41436;SDS011;27178;49.460;10.850;2024-01-15T10:13:32;10.07;;;8.73;;
41436;SDS011;27178;49.460;10.850;2024-01-15T10:16:01;9.30;;;8.07;;
41436;SDS011;27178;49.460;10.850;2024-01-15T10:18:30;9.80;;;7.80;;
41436;SDS011;27178;49.460;10.850;2024-01-15T10:20:59;11.47;;;9.37;;
41436;SDS011;27178;49.460;10.850;2024-01-15T10:23:29;10.17;;;8.33;;
41436;SDS011;27178;49.460;10.850;2024-01-15T10:26:00;10.30;;;8.30;;
41436;SDS011;27178;49.460;10.850;2024-01-15T10:28:29;10.33;;;8.23;;
41436;SDS011;27178;49.460;10.850;2024-01-15T10:30:58;10.17;;;8.03;;
41436;SDS011;27178;49.460;10.850;2024-01-15T10:33:27;9.03;;;7.77;;
41436;SDS011;27178;49.460;10.850;2024-01-15T10:35:57;10.77;;;8.10;;
41436;SDS011;27178;49.460;10.850;2024-01-15T10:38:26;9.50;;;7.97;;
41436;SDS011;27178;49.460;10.850;2024-01-15T10:40:56;9.07;;;7.60;;
41436;SDS011;27178;49.460;10.850;2024-01-15T10:43:24;9.90;;;8.43;;
41436;SDS011;27178;49.460;10.850;2024-01-15T10:45:55;9.53;;;7.70;;
41436;SDS011;27178;49.460;10.850;2024-01-15T10:48:23;9.90;;;8.47;;
41436;SDS011;27178;49.460;10.850;2024-01-15T10:50:55;11.00;;;8.90;;
41436;SDS011;27178;49.460;10.850;2024-01-15T10:53:23;9.73;;;8.23;;
41436;SDS011;27178;49.460;10.850;2024-01-15T10:55:53;8.63;;;7.73;;
41436;SDS011;27178;49.460;10.850;2024-01-15T10:58:24;9.40;;;7.87;;
41436;SDS011;27178;49.460;10.850;2024-01-15T11:00:56;9.53;;;8.53;;
41436;SDS011;27178;49.460;10.850;2024-01-15T11:03:25;10.23;;;8.40;;
41436;SDS011;27178;49.460;10.850;2024-01-15T11:05:54;8.83;;;7.70;;
41436;SDS011;27178;49.460;10.850;2024-01-15T11:08:22;10.60;;;8.87;;
41436;SDS011;27178;49.460;10.850;2024-01-15T11:10:54;8.30;;;7.37;;
41436;SDS011;27178;49.460;10.850;2024-01-15T11:13:39;8.13;;;7.33;;
41436;SDS011;27178;49.460;10.850;2024-01-15T11:16:09;9.90;;;7.77;;
41436;SDS011;27178;49.460;10.850;2024-01-15T11:18:39;8.60;;;7.70;;
41436;SDS011;27178;49.460;10.850;2024-01-15T11:21:21;9.80;;;7.90;;
41436;SDS011;27178;49.460;10.850;2024-01-15T11:23:52;8.43;;;7.63;;
41436;SDS011;27178;49.460;10.850;2024-01-15T11:26:32;11.07;;;8.53;;
41436;SDS011;27178;49.460;10.850;2024-01-15T11:29:02;9.43;;;7.77;;
41436;SDS011;27178;49.460;10.850;2024-01-15T11:37:19;8.03;;;7.00;;
41436;SDS011;27178;49.460;10.850;2024-01-15T11:39:50;10.27;;;7.90;;
41436;SDS011;27178;49.460;10.850;2024-01-15T11:42:22;10.07;;;7.93;;
41436;SDS011;27178;49.460;10.850;2024-01-15T11:44:51;9.03;;;7.63;;
41436;SDS011;27178;49.460;10.850;2024-01-15T11:47:37;7.80;;;7.00;;
41436;SDS011;27178;49.460;10.850;2024-01-15T11:50:38;7.23;;;6.20;;
41436;SDS011;27178;49.460;10.850;2024-01-15T11:53:18;8.23;;;7.13;;
41436;SDS011;27178;49.460;10.850;2024-01-15T11:55:56;9.00;;;7.03;;
41436;SDS011;27178;49.460;10.850;2024-01-15T11:58:28;8.23;;;7.00;;
41436;SDS011;27178;49.460;10.850;2024-01-15T12:00:56;8.67;;;6.90;;
41436;SDS011;27178;49.460;10.850;2024-01-15T12:03:25;8.00;;;6.50;;
41436;SDS011;27178;49.460;10.850;2024-01-15T12:05:54;6.97;;;6.27;;
41436;SDS011;27178;49.460;10.850;2024-01-15T12:08:22;8.63;;;7.37;;
41436;SDS011;27178;49.460;10.850;2024-01-15T12:10:51;8.23;;;6.43;;
41436;SDS011;27178;49.460;10.850;2024-01-15T12:13:20;7.83;;;6.70;;
41436;SDS011;27178;49.460;10.850;2024-01-15T12:15:49;7.50;;;6.50;;
41436;SDS011;27178;49.460;10.850;2024-01-15T12:18:18;8.30;;;7.23;;
41436;SDS011;27178;49.460;10.850;2024-01-15T12:20:48;7.90;;;6.87;;
41436;SDS011;27178;49.460;10.850;2024-01-15T12:23:16;8.03;;;7.07;;
41436;SDS011;27178;49.460;10.850;2024-01-15T12:25:45;7.50;;;6.63;;
41436;SDS011;27178;49.460;10.850;2024-01-15T12:28:13;8.60;;;6.87;;
41436;SDS011;27178;49.460;10.850;2024-01-15T12:30:45;7.10;;;6.40;;
41436;SDS011;27178;49.460;10.850;2024-01-15T12:33:18;7.13;;;6.37;;
41436;SDS011;27178;49.460;10.850;2024-01-15T12:35:47;7.37;;;6.57;;
41436;SDS011;27178;49.460;10.850;2024-01-15T12:38:18;8.47;;;6.97;;
41436;SDS011;27178;49.460;10.850;2024-01-15T12:40:47;6.77;;;6.00;;
41436;SDS011;27178;49.460;10.850;2024-01-15T12:43:16;8.37;;;6.97;;
41436;SDS011;27178;49.460;10.850;2024-01-15T12:45:45;6.63;;;5.60;;
41436;SDS011;27178;49.460;10.850;2024-01-15T12:48:14;7.03;;;6.03;;
41436;SDS011;27178;49.460;10.850;2024-01-15T12:50:46;8.43;;;6.47;;
41436;SDS011;27178;49.460;10.850;2024-01-15T12:53:15;6.90;;;6.20;;
41436;SDS011;27178;49.460;10.850;2024-01-15T12:55:44;7.10;;;6.00;;
41436;SDS011;27178;49.460;10.850;2024-01-15T12:58:13;6.23;;;5.63;;
41436;SDS011;27178;49.460;10.850;2024-01-15T13:00:44;6.20;;;5.63;;
41436;SDS011;27178;49.460;10.850;2024-01-15T13:03:14;6.50;;;5.80;;
41436;SDS011;27178;49.460;10.850;2024-01-15T13:05:42;5.93;;;5.37;;
41436;SDS011;27178;49.460;10.850;2024-01-15T13:08:13;5.93;;;5.20;;
41436;SDS011;27178;49.460;10.850;2024-01-15T13:10:41;5.90;;;5.30;;
41436;SDS011;27178;49.460;10.850;2024-01-15T13:13:10;6.57;;;5.57;;
41436;SDS011;27178;49.460;10.850;2024-01-15T13:15:39;6.47;;;5.27;;
41436;SDS011;27178;49.460;10.850;2024-01-15T13:18:08;6.70;;;5.70;;
41436;SDS011;27178;49.460;10.850;2024-01-15T13:20:37;5.80;;;5.27;;
41436;SDS011;27178;49.460;10.850;2024-01-15T13:23:05;5.90;;;5.30;;
41436;SDS011;27178;49.460;10.850;2024-01-15T13:25:35;6.27;;;5.67;;
41436;SDS011;27178;49.460;10.850;2024-01-15T13:28:05;5.80;;;5.17;;
41436;SDS011;27178;49.460;10.850;2024-01-15T13:30:34;5.80;;;5.27;;
41436;SDS011;27178;49.460;10.850;2024-01-15T13:33:04;6.47;;;4.70;;
41436;SDS011;27178;49.460;10.850;2024-01-15T13:35:32;5.77;;;5.03;;
41436;SDS011;27178;49.460;10.850;2024-01-15T13:38:02;5.23;;;4.73;;
41436;SDS011;27178;49.460;10.850;2024-01-15T13:40:31;5.20;;;4.70;;
41436;SDS011;27178;49.460;10.850;2024-01-15T13:43:01;5.20;;;4.70;;
41436;SDS011;27178;49.460;10.850;2024-01-15T13:45:33;4.87;;;4.37;;
41436;SDS011;27178;49.460;10.850;2024-01-15T13:48:03;4.97;;;4.47;;
41436;SDS011;27178;49.460;10.850;2024-01-15T13:50:32;5.67;;;5.00;;
41436;SDS011;27178;49.460;10.850;2024-01-15T13:53:01;5.47;;;4.97;;
41436;SDS011;27178;49.460;10.850;2024-01-15T13:55:30;5.37;;;4.37;;
41436;SDS011;27178;49.460;10.850;2024-01-15T13:58:01;5.00;;;4.50;;
41436;SDS011;27178;49.460;10.850;2024-01-15T14:00:32;5.13;;;4.63;;
41436;SDS011;27178;49.460;10.850;2024-01-15T14:03:01;5.87;;;4.67;;
41436;SDS011;27178;49.460;10.850;2024-01-15T14:05:29;5.77;;;5.17;;
41436;SDS011;27178;49.460;10.850;2024-01-15T14:07:58;5.77;;;5.07;;
41436;SDS011;27178;49.460;10.850;2024-01-15T14:10:27;4.83;;;4.43;;
41436;SDS011;27178;49.460;10.850;2024-01-15T14:12:55;4.50;;;4.10;;
41436;SDS011;27178;49.460;10.850;2024-01-15T14:15:24;4.83;;;4.40;;
41436;SDS011;27178;49.460;10.850;2024-01-15T14:17:54;4.47;;;4.07;;
41436;SDS011;27178;49.460;10.850;2024-01-15T14:20:22;4.27;;;3.87;;
41436;SDS011;27178;49.460;10.850;2024-01-15T14:22:50;4.77;;;4.27;;
41436;SDS011;27178;49.460;10.850;2024-01-15T14:25:19;4.43;;;4.03;;
41436;SDS011;27178;49.460;10.850;2024-01-15T14:27:47;4.50;;;4.10;;
41436;SDS011;27178;49.460;10.850;2024-01-15T14:30:16;4.50;;;4.10;;
41436;SDS011;27178;49.460;10.850;2024-01-15T14:32:46;4.13;;;3.83;;
41436;SDS011;27178;49.460;10.850;2024-01-15T14:35:15;4.70;;;4.03;;
41436;SDS011;27178;49.460;10.850;2024-01-15T14:37:43;4.57;;;4.17;;
41436;SDS011;27178;49.460;10.850;2024-01-15T14:40:12;4.23;;;3.83;;